COBRA23 EGXC-EGXC

Flight info

Callsign COBRA23
Flight time N/A
Altitude 37000
Route EGXC
Aircraft EUFI/M-SDGHITUY/LB1

Departure

Time 2026-04-29 16:36
Airport RAF Coningsby (EGXC)

Arrival

Time N/A
Airport RAF Coningsby (EGXC)
Time Latitude Longitude Altitude Speed Heading
2026-04-29 16:29 53.09394 -0.18030 24 ft 0 kts 65°
2026-04-29 16:33 53.09411 -0.17963 27 ft 6 kts 76°
2026-04-29 16:34 53.09399 -0.17888 24 ft 11 kts 113°
2026-04-29 16:34 53.09357 -0.17726 25 ft 15 kts 116°
2026-04-29 16:34 53.09316 -0.17604 24 ft 6 kts 148°
2026-04-29 16:34 53.09267 -0.17779 24 ft 31 kts 251°
2026-04-29 16:35 53.09229 -0.18110 24 ft 29 kts 292°
2026-04-29 16:35 53.09253 -0.18376 25 ft 21 kts 196°
2026-04-29 16:35 53.09089 -0.18493 26 ft 28 kts 201°
2026-04-29 16:35 53.08959 -0.18544 25 ft 13 kts 129°
2026-04-29 16:36 53.08964 -0.18422 27 ft 9 kts 73°
2026-04-29 16:36 53.09183 -0.17269 143 ft 206 kts 73°
2026-04-29 16:36 53.09793 -0.13950 1131 ft 348 kts 71°
2026-04-29 16:36 53.11376 -0.11471 3153 ft 341 kts 19°
2026-04-29 16:37 53.13667 -0.10327 5744 ft 349 kts 18°
2026-04-29 16:37 53.16047 -0.09174 8570 ft 368 kts 17°
2026-04-29 16:37 53.18640 -0.07926 9291 ft 380 kts 17°
2026-04-29 16:37 53.20375 -0.07104 9845 ft 388 kts 16°
2026-04-29 16:38 53.23838 -0.05503 10837 ft 392 kts 16°
2026-04-29 16:38 53.26540 -0.04953 11600 ft 397 kts 356°
2026-04-29 16:38 53.29285 -0.05686 12377 ft 401 kts 349°
2026-04-29 16:38 53.32020 -0.06773 13177 ft 406 kts 348°
2026-04-29 16:39 53.34774 -0.07989 13998 ft 411 kts 346°
2026-04-29 16:39 53.37549 -0.09264 14679 ft 417 kts 346°
2026-04-29 16:39 53.40351 -0.10569 14984 ft 418 kts 346°
2026-04-29 16:39 53.43157 -0.11885 15122 ft 418 kts 346°
2026-04-29 16:40 53.45958 -0.13204 15199 ft 418 kts 346°
2026-04-29 16:40 53.48758 -0.14522 15217 ft 418 kts 345°
2026-04-29 16:40 53.51558 -0.15838 15233 ft 418 kts 346°
2026-04-29 16:40 53.54356 -0.17157 15242 ft 417 kts 345°
2026-04-29 16:41 53.57129 -0.18469 15254 ft 417 kts 346°
2026-04-29 16:41 53.59927 -0.19790 15254 ft 417 kts 346°
2026-04-29 16:41 53.62721 -0.21109 15250 ft 418 kts 346°
2026-04-29 16:41 53.65524 -0.22433 15239 ft 418 kts 346°
2026-04-29 16:42 53.68318 -0.23755 15238 ft 417 kts 346°
2026-04-29 16:42 53.71109 -0.25077 15235 ft 416 kts 346°
2026-04-29 16:42 53.73902 -0.26404 15231 ft 416 kts 346°
2026-04-29 16:42 53.76694 -0.27733 15236 ft 417 kts 346°
2026-04-29 16:43 53.79480 -0.29063 15248 ft 416 kts 346°
2026-04-29 16:43 53.82262 -0.30392 15258 ft 416 kts 346°
2026-04-29 16:43 53.85047 -0.31722 15254 ft 416 kts 346°
2026-04-29 16:43 53.87835 -0.33057 15255 ft 415 kts 346°
2026-04-29 16:44 53.90619 -0.34393 15266 ft 415 kts 346°
2026-04-29 16:44 53.93400 -0.35728 15260 ft 416 kts 346°
2026-04-29 16:44 53.96137 -0.37069 15250 ft 416 kts 341°
2026-04-29 16:44 53.98359 -0.40112 15078 ft 420 kts 297°
2026-04-29 16:45 53.98818 -0.45022 15012 ft 431 kts 261°
2026-04-29 16:45 53.97401 -0.49470 14994 ft 443 kts 222°
2026-04-29 16:45 53.94663 -0.51602 14888 ft 442 kts 182°
2026-04-29 16:45 53.91881 -0.50064 14535 ft 424 kts 133°
2026-04-29 16:46 53.90846 -0.45651 14643 ft 411 kts 80°
2026-04-29 16:46 53.92351 -0.41739 14754 ft 413 kts 33°
2026-04-29 16:46 53.93880 -0.39902 15008 ft 399 kts 48°
2026-04-29 16:48 53.94541 -0.38310 15148 ft 434 kts 65°
2026-04-29 16:48 53.94148 -0.33661 15060 ft 441 kts 132°
2026-04-29 16:48 53.91397 -0.32575 14719 ft 441 kts 208°
2026-04-29 16:48 53.89999 -0.36722 14466 ft 416 kts 284°
2026-04-29 16:49 53.91877 -0.40232 14427 ft 418 kts 331°
2026-04-29 16:49 53.93207 -0.41532 14494 ft 412 kts 332°
2026-04-29 16:50 53.93470 -0.41788 14491 ft 407 kts 332°
2026-04-29 16:50 53.95814 -0.44447 14361 ft 405 kts 311°
2026-04-29 16:50 53.96908 -0.48933 14760 ft 430 kts 289°
2026-04-29 16:50 53.97731 -0.53706 14431 ft 416 kts 288°
2026-04-29 16:51 53.98528 -0.58499 14448 ft 419 kts 288°
2026-04-29 16:51 53.99300 -0.63303 14460 ft 419 kts 287°
2026-04-29 16:51 54.00041 -0.68093 14457 ft 421 kts 287°
2026-04-29 16:51 54.00762 -0.72925 14464 ft 421 kts 286°
2026-04-29 16:52 54.01225 -0.76128 14460 ft 421 kts 286°
2026-04-29 16:52 54.02117 -0.82538 14472 ft 421 kts 285°
2026-04-29 16:52 54.02826 -0.87807 14478 ft 495 kts 285°
2026-04-29 16:52 54.03328 -0.91604 14474 ft 488 kts 284°
2026-04-29 16:53 54.04273 -0.99026 14467 ft 481 kts 284°
2026-04-29 16:53 54.04725 -1.02724 14464 ft 483 kts 283°
2026-04-29 16:53 54.05388 -1.08321 14456 ft 482 kts 283°
2026-04-29 16:53 54.06023 -1.13911 14456 ft 480 kts 283°
2026-04-29 16:54 54.06614 -1.19520 14444 ft 481 kts 279°
2026-04-29 16:54 54.06665 -1.25240 14456 ft 484 kts 269°
2026-04-29 16:54 54.06409 -1.30962 14456 ft 487 kts 266°
2026-04-29 16:54 54.06061 -1.36685 14449 ft 485 kts 266°
2026-04-29 16:55 54.05678 -1.42387 14447 ft 485 kts 265°
2026-04-29 16:55 54.05278 -1.48088 14443 ft 484 kts 266°
2026-04-29 16:55 54.05066 -1.53803 14436 ft 483 kts 270°
2026-04-29 16:55 54.05013 -1.59514 14426 ft 483 kts 272°
2026-04-29 16:56 54.05013 -1.65228 14423 ft 482 kts 272°
2026-04-29 16:56 54.05032 -1.70860 14418 ft 481 kts 273°
2026-04-29 16:56 54.05058 -1.76497 14414 ft 482 kts 273°
2026-04-29 16:56 54.05084 -1.82195 14412 ft 482 kts 273°
2026-04-29 16:57 54.05112 -1.87899 14409 ft 481 kts 273°
2026-04-29 16:57 54.05139 -1.93592 14376 ft 481 kts 273°
2026-04-29 16:57 54.05166 -1.99234 13343 ft 475 kts 273°
2026-04-29 16:57 54.05199 -2.04813 12564 ft 470 kts 273°
2026-04-29 16:58 54.05239 -2.10354 11799 ft 465 kts 272°
2026-04-29 16:58 54.05287 -2.15829 11067 ft 459 kts 272°
2026-04-29 16:58 54.05342 -2.21265 10332 ft 457 kts 273°
2026-04-29 16:58 54.05404 -2.26661 9542 ft 452 kts 273°
2026-04-29 16:59 54.05469 -2.31975 8760 ft 448 kts 273°
2026-04-29 16:59 54.05535 -2.37232 8012 ft 441 kts 273°
2026-04-29 16:59 54.05598 -2.42438 7281 ft 438 kts 272°
2026-04-29 16:59 54.05660 -2.47580 6535 ft 433 kts 272°
2026-04-29 17:00 54.05718 -2.52605 5890 ft 430 kts 273°
2026-04-29 17:00 54.05918 -2.57653 5559 ft 427 kts 278°
2026-04-29 17:00 54.06404 -2.62608 5271 ft 421 kts 288°
2026-04-29 17:00 54.07894 -2.66816 4079 ft 441 kts 314°
2026-04-29 17:01 54.10216 -2.71143 3122 ft 491 kts 314°
2026-04-29 17:01 54.12523 -2.75417 2790 ft 485 kts 314°
2026-04-29 17:01 54.14804 -2.79634 2456 ft 482 kts 314°
2026-04-29 17:01 54.17072 -2.83862 2735 ft 484 kts 313°
2026-04-29 17:02 54.19572 -2.87556 2324 ft 475 kts 343°
2026-04-29 17:02 54.22823 -2.88335 1898 ft 471 kts 354°
2026-04-29 17:02 54.26027 -2.89347 1776 ft 469 kts 328°
2026-04-29 17:02 54.28117 -2.93699 1240 ft 478 kts 309°
2026-04-29 17:03 54.31083 -2.95522 666 ft 485 kts 15°
2026-04-29 17:03 54.34304 -2.93933 727 ft 483 kts 15°
2026-04-29 17:03 54.37560 -2.92997 995 ft 473 kts
2026-04-29 17:03 54.40622 -2.91495 1424 ft 445 kts 26°
2026-04-29 17:04 54.43576 -2.89714 1635 ft 467 kts 348°
2026-04-29 17:04 54.46147 -2.92757 1785 ft 444 kts
2026-04-29 17:04 54.49220 -2.92486 1131 ft 469 kts
2026-04-29 17:04 54.52645 -2.92857 1129 ft 518 kts 340°
2026-04-29 17:05 54.55971 -2.94011 823 ft 468 kts 38°
2026-04-29 17:05 54.57498 -2.89298 710 ft 460 kts 71°
2026-04-29 17:05 54.58872 -2.84575 1520 ft 432 kts 40°
2026-04-29 17:05 54.60835 -2.80878 2864 ft 441 kts 78°
2026-04-29 17:06 54.59763 -2.75965 3983 ft 454 kts 120°
2026-04-29 17:06 54.58048 -2.71375 4984 ft 451 kts 134°
2026-04-29 17:06 54.55673 -2.67845 8437 ft 484 kts 138°
2026-04-29 17:06 54.53044 -2.64064 8436 ft 490 kts 141°
2026-04-29 17:07 54.50146 -2.61051 7703 ft 485 kts 156°
2026-04-29 17:07 54.46907 -2.59536 6966 ft 480 kts 172°
2026-04-29 17:07 54.43583 -2.59736 6206 ft 477 kts 188°
2026-04-29 17:07 54.40329 -2.60834 5467 ft 472 kts 192°
2026-04-29 17:08 54.37138 -2.62140 4719 ft 468 kts 194°
2026-04-29 17:08 54.33999 -2.63522 3992 ft 465 kts 195°
2026-04-29 17:08 54.31323 -2.66301 2579 ft 450 kts 237°
2026-04-29 17:08 54.29036 -2.69968 2427 ft 455 kts 215°
2026-04-29 17:09 54.26911 -2.72622 2474 ft 455 kts 217°
2026-04-29 17:10 54.25529 -2.75479 2249 ft 453 kts 253°
2026-04-29 17:10 54.25502 -2.80779 1908 ft 447 kts 275°
2026-04-29 17:10 54.25811 -2.86016 1617 ft 438 kts 293°
2026-04-29 17:11 54.27242 -2.90653 1155 ft 441 kts 301°
2026-04-29 17:11 54.29127 -2.94985 817 ft 467 kts 342°
2026-04-29 17:11 54.29925 -2.95385 592 ft 479 kts 350°
2026-04-29 17:12 54.30801 -2.95568 501 ft 487 kts
2026-04-29 17:13 54.35631 -2.93336 613 ft 565 kts
2026-04-29 17:13 54.36465 -2.93259 630 ft 529 kts
2026-04-29 17:13 54.37461 -2.93418 624 ft 492 kts 352°
2026-04-29 17:14 54.40478 -2.95552 526 ft 476 kts 328°
2026-04-29 17:14 54.43633 -2.96849 659 ft 471 kts 349°
2026-04-29 17:14 54.44826 -3.01111 746 ft 435 kts 301°
2026-04-29 17:14 54.47593 -3.02888 1200 ft 451 kts 346°
2026-04-29 17:15 54.50504 -3.04474 1101 ft 436 kts 344°
2026-04-29 17:15 54.53405 -3.06007 1101 ft 436 kts 328°
2026-04-29 17:15 54.56462 -3.06967 1172 ft 507 kts 345°
2026-04-29 17:15 54.59577 -3.08547 1900 ft 325 kts 54°
2026-04-29 17:16 54.60795 -3.05895 1582 ft 243 kts 51°
2026-04-29 17:16 54.61469 -3.03552 2379 ft 308 kts 61°
2026-04-29 17:16 54.62986 -2.98699 1364 ft 599 kts 65°